Flight Track Log - Related Links

Times and Time Zones

All times are in EDT time to prevent confusion due to time zone crossing. See the CTL61 flight status page for this flight to view local times or setup timezone preferences in your user account.

Time Position Orientation Groundspeed Altitude Reporting Facility
EDT Latitude Longitude Course Direction KTS MPH feet Rate Location/Type
Thu 09:02:59 PM 39.9950 -82.8958 195° South 99 114 1,200  Level Indianapolis Center
Thu 09:04:05 PM 39.9608 -82.9081 195° South 133 153 2,600 1,228 Climbing Indianapolis Center
Thu 09:05:06 PM 39.9239 -82.8958 166° South 147 169 3,800 1,180 Climbing Indianapolis Center
Thu 09:06:07 PM 39.8900 -82.8703 150° Southeast 141 162 5,000 1,190 Climbing Indianapolis Center
Thu 09:07:07 PM 39.8539 -82.8472 154° Southeast 130 150 6,200 1,113 Climbing Indianapolis Center
Thu 09:08:11 PM 39.8236 -82.8278 154° Southeast 128 147 7,300 896 Climbing Indianapolis Center
Thu 09:09:21 PM 39.7839 -82.8011 153° Southeast 128 147 8,200 732 Climbing Indianapolis Center
Thu 09:10:14 PM 39.7578 -82.7856 155° Southeast 136 157 8,800 474 Climbing Indianapolis Center
Thu 09:11:15 PM 39.7194 -82.7586 152° Southeast 154 177 9,100 75 Climbing Indianapolis Center
Thu 09:11:34 PM 39.7036 -82.7489 155° Southeast 170 196 8,900  Descending Indianapolis Center
Thu 09:12:16 PM 39.6739 -82.7294 153° Southeast 178 205 9,100 90 Climbing Indianapolis Center
Thu 09:12:41 PM 39.6514 -82.7161 155° Southeast 186 214 9,000 -97 Descending Indianapolis Center
Thu 09:13:18 PM 39.6286 -82.6981 149° Southeast 182 209 9,000  Level Indianapolis Center
Thu 09:14:19 PM 39.5828 -82.6644 151° Southeast 188 216 9,000  Level Indianapolis Center
Thu 09:15:20 PM 39.5372 -82.6319 151° Southeast 185 213 9,000  Level Indianapolis Center
Thu 09:16:21 PM 39.4922 -82.6008 152° Southeast 183 211 9,000  Level Indianapolis Center
Thu 09:17:23 PM 39.4472 -82.5719 154° Southeast 179 206 9,000 49 Level Indianapolis Center
Thu 09:18:24 PM 39.3964 -82.5389 153° Southeast 175 201 9,100 49 Climbing Indianapolis Center
Thu 09:19:25 PM 39.3542 -82.5100 152° Southeast 171 197 9,100 341 Level Indianapolis Center
Thu 09:20:27 PM 39.3125 -82.4839 154° Southeast 167 192 9,800 488 Climbing Indianapolis Center
Thu 09:21:28 PM 39.2736 -82.4622 157° South 154 177 10,100 148 Climbing Indianapolis Center
Thu 09:22:29 PM 39.2294 -82.4336 153° Southeast 172 198 10,100 -246 Level Indianapolis Center
Thu 09:23:30 PM 39.1825 -82.4019 152° Southeast 184 212 9,600 -683 Descending Indianapolis Center
Thu 09:24:32 PM 39.1292 -82.3675 153° Southeast 206 237 8,700 -829 Descending Indianapolis Center
Thu 09:25:33 PM 39.0742 -82.3325 154° Southeast 219 252 7,900 -836 Descending Indianapolis Center
Thu 09:26:34 PM 39.0208 -82.2972 153° Southeast 217 250 7,000 -439 Descending Indianapolis Center
Thu 09:27:36 PM 38.9711 -82.2653 153° Southeast 201 231 7,000  Level Indianapolis Center
Thu 09:28:37 PM 38.9253 -82.2344 152° Southeast 187 215 7,000  Level Indianapolis Center
Thu 09:29:38 PM 38.8800 -82.2033 152° Southeast 186 214 7,000  Level Indianapolis Center
Thu 09:30:39 PM 38.8233 -82.1728 157° South 183 211 7,000  Level Indianapolis Center
Thu 09:31:41 PM 38.7772 -82.1403 151° Southeast 189 217 7,000  Level Indianapolis Center
Thu 09:32:42 PM 38.7314 -82.1086 152° Southeast 187 215 7,000  Level Indianapolis Center
Thu 09:33:43 PM 38.6861 -82.0783 152° Southeast 184 212 7,000  Level Indianapolis Center
Thu 09:34:45 PM 38.6397 -82.0494 154° Southeast 185 213 7,000  Level Indianapolis Center
Thu 09:35:46 PM 38.5936 -82.0197 153° Southeast 185 213 7,000  Level Indianapolis Center
Thu 09:36:47 PM 38.5472 -81.9908 154° Southeast 186 214 7,000  Level Indianapolis Center
Thu 09:37:48 PM 38.5017 -81.9617 153° Southeast 184 212 7,000  Level Indianapolis Center
Thu 09:38:50 PM 38.4567 -81.9325 153° Southeast 183 211 7,000  Level Indianapolis Center
Thu 09:39:51 PM 38.4025 -81.8983 154° Southeast 181 208 7,000  Level Indianapolis Center
Thu 09:40:52 PM 38.3589 -81.8711 154° Southeast 178 205 7,000  Level Indianapolis Center
Thu 09:41:54 PM 38.3161 -81.8447 154° Southeast 174 200 7,000  Level Indianapolis Center
Thu 09:42:55 PM 38.2733 -81.8175 153° Southeast 171 197 7,000  Level Indianapolis Center
Thu 09:43:56 PM 38.2303 -81.7903 154° Southeast 173 199 7,000  Level Indianapolis Center
Thu 09:44:58 PM 38.1878 -81.7628 153° Southeast 172 198 7,000  Level Indianapolis Center
Thu 09:45:59 PM 38.1442 -81.7369 155° Southeast 172 198 7,000  Level Indianapolis Center
Thu 09:47:00 PM 38.1008 -81.7092 153° Southeast 174 200 7,000  Level Indianapolis Center
Thu 09:48:02 PM 38.0572 -81.6811 153° Southeast 175 201 7,000  Level Indianapolis Center
Thu 09:49:03 PM 38.0050 -81.6494 154° Southeast 173 199 7,000  Level Indianapolis Center
Thu 09:50:04 PM 37.9606 -81.6219 154° Southeast 176 203 7,000  Level Indianapolis Center
Thu 09:51:06 PM 37.9167 -81.5942 153° Southeast 177 204 7,000  Level Indianapolis Center
Thu 09:52:07 PM 37.8717 -81.5644 152° Southeast 180 207 7,000  Level Indianapolis Center
Thu 09:53:08 PM 37.8272 -81.5369 154° Southeast 177 204 7,000  Level Indianapolis Center
Thu 09:54:10 PM 37.7825 -81.5050 151° Southeast 181 208 7,000  Level Indianapolis Center
Thu 09:55:11 PM 37.7403 -81.4767 152° Southeast 182 209 7,000 49 Level Indianapolis Center
Thu 09:56:12 PM 37.6994 -81.4400 145° Southeast 183 211 7,100 98 Climbing Indianapolis Center

Login

Don't have an account? Register now (free) for customized features, flight alerts, and more!